Time;durP1;ratioP1;P1;durP2;ratioP2;P2;SDS_P1;SDS_P2;PMS_P1;PMS_P2;Temp;Humidity;BMP_temperature;BMP_pressure;BME280_temperature;BME280_humidity;BME280_pressure;Samples;Min_cycle;Max_cycle;Signal;HPM_P1;HPM_P2
2022/11/08 00:01:30;;;;;;;17.80;7.20;;;11.20;99.90;;;;;;5044768;28;20390;-74
2022/11/08 00:03:06;;;;;;;18.42;6.85;;;11.40;99.90;;;;;;5045136;28;20890;-75
2022/11/08 00:13:56;;;;;;;14.80;6.10;;;11.80;99.90;;;;;;5043162;28;20410;-74
2022/11/08 00:16:22;;;;;;;22.80;6.47;;;11.80;99.90;;;;;;5043546;28;20418;-75
2022/11/08 00:18:47;;;;;;;15.48;6.97;;;11.80;99.90;;;;;;5043682;28;20383;-73
2022/11/08 00:21:13;;;;;;;15.27;5.73;;;11.90;99.90;;;;;;5040392;28;20395;-72
2022/11/08 00:23:38;;;;;;;14.07;5.70;;;11.90;99.90;;;;;;5032148;28;20428;-73
2022/11/08 00:26:04;;;;;;;11.10;5.20;;;12.00;99.90;;;;;;5032030;28;20787;-73
2022/11/08 00:28:29;;;;;;;17.73;4.60;;;12.10;99.90;;;;;;5032708;28;20375;-73
2022/11/08 00:30:55;;;;;;;13.45;4.95;;;12.10;99.90;;;;;;5032199;28;20398;-74
2022/11/08 00:33:20;;;;;;;15.20;4.63;;;12.20;99.90;;;;;;5031576;28;20398;-73
2022/11/08 00:35:46;;;;;;;13.60;4.40;;;12.30;96.90;;;;;;5031534;28;20382;-72
2022/11/08 00:38:11;;;;;;;17.33;5.37;;;12.40;95.10;;;;;;5031528;28;20997;-73
2022/11/08 00:40:37;;;;;;;15.30;4.47;;;12.50;92.80;;;;;;5032863;28;20518;-74
2022/11/08 00:43:03;;;;;;;14.70;4.47;;;12.60;89.50;;;;;;5015396;28;20445;-74
2022/11/08 00:45:28;;;;;;;12.48;4.10;;;12.70;87.10;;;;;;5031696;28;20395;-72
2022/11/08 00:47:54;;;;;;;7.05;3.38;;;12.80;84.70;;;;;;5016704;28;20391;-73
2022/11/08 00:50:19;;;;;;;12.13;4.03;;;12.90;82.70;;;;;;5034434;28;20391;-73
2022/11/08 00:52:45;;;;;;;14.47;3.93;;;12.90;81.10;;;;;;5031086;28;20387;-73
2022/11/08 00:55:10;;;;;;;9.80;3.60;;;13.00;79.90;;;;;;5031591;28;20479;-73
2022/11/08 00:57:36;;;;;;;13.00;4.70;;;13.00;79.60;;;;;;5031477;28;20798;-73
2022/11/08 01:00:01;;;;;;;8.93;3.30;;;13.00;80.10;;;;;;5031422;28;20756;-74
2022/11/08 01:02:27;;;;;;;11.13;3.53;;;12.90;78.80;;;;;;5030702;28;20544;-74
2022/11/08 01:04:52;;;;;;;12.23;4.37;;;13.10;77.20;;;;;;5031043;28;20884;-74
2022/11/08 01:07:18;;;;;;;12.13;4.00;;;13.00;76.90;;;;;;5030956;28;20823;-74
2022/11/08 01:09:43;;;;;;;9.82;3.90;;;13.00;77.60;;;;;;5031184;28;20942;-73
2022/11/08 01:12:09;;;;;;;14.18;3.75;;;13.10;77.30;;;;;;5031441;28;20422;-73
2022/11/08 01:14:36;;;;;;;10.13;2.93;;;13.20;75.50;;;;;;5032586;28;20425;-73
2022/11/08 01:17:01;;;;;;;12.25;3.75;;;13.20;73.60;;;;;;5031407;28;20389;-73
2022/11/08 01:19:27;;;;;;;14.80;3.50;;;13.40;72.80;;;;;;5031835;28;20383;-73
2022/11/08 01:21:52;;;;;;;11.07;3.30;;;13.40;71.60;;;;;;5033758;28;20859;-73
2022/11/08 01:24:20;;;;;;;9.20;2.80;;;13.30;72.20;;;;;;5035006;28;20747;-75
2022/11/08 01:26:45;;;;;;;8.18;2.92;;;13.40;70.80;;;;;;5035396;28;20383;-74
2022/11/08 01:29:11;;;;;;;9.67;3.63;;;13.40;71.50;;;;;;5035122;28;20433;-74
2022/11/08 01:31:36;;;;;;;15.93;3.80;;;13.40;70.50;;;;;;5035504;28;20387;-74
2022/11/08 01:34:02;;;;;;;13.13;4.03;;;13.40;72.30;;;;;;5034910;28;20500;-74
2022/11/08 01:36:28;;;;;;;12.48;4.00;;;13.40;71.70;;;;;;5035303;28;20438;-72
2022/11/08 01:38:55;;;;;;;11.90;4.07;;;13.30;71.40;;;;;;5035366;28;20391;-73
2022/11/08 01:41:22;;;;;;;13.60;3.80;;;13.20;73.50;;;;;;5035375;28;20446;-73
2022/11/08 01:44:15;;;;;;;14.48;4.00;;;13.00;75.40;;;;;;5036609;28;20459;-73
2022/11/08 01:46:43;;;;;;;15.75;4.07;;;12.90;76.20;;;;;;5049992;28;20383;-73
2022/11/08 01:49:38;;;;;;;9.83;3.37;;;13.00;75.60;;;;;;5053284;28;20383;-74
2022/11/08 01:52:24;;;;;;;13.90;3.55;;;13.00;76.80;;;;;;5043112;28;20739;-74
2022/11/08 01:54:55;;;;;;;11.68;3.80;;;13.10;75.40;;;;;;5032423;28;20387;-72
2022/11/08 01:57:28;;;;;;;12.45;3.45;;;13.10;75.60;;;;;;5050441;28;20403;-74
2022/11/08 01:59:57;;;;;;;12.33;3.40;;;13.10;75.20;;;;;;5040498;28;20391;-72
2022/11/08 02:02:23;;;;;;;11.90;3.40;;;13.10;73.00;;;;;;5033889;28;20927;-71
2022/11/08 02:04:48;;;;;;;10.30;3.40;;;13.10;74.00;;;;;;5034170;28;20707;-72
2022/11/08 02:07:16;;;;;;;7.60;3.10;;;13.00;75.60;;;;;;5034121;28;20829;-73
2022/11/08 02:09:44;;;;;;;9.57;4.20;;;12.80;77.50;;;;;;5034243;28;20391;-73
2022/11/08 02:12:11;;;;;;;12.35;3.58;;;12.70;79.30;;;;;;5033838;28;20391;-74
2022/11/08 02:14:37;;;;;;;12.68;3.75;;;12.60;80.90;;;;;;5035010;28;20954;-72
2022/11/08 02:17:03;;;;;;;12.07;4.20;;;12.50;82.00;;;;;;5033970;28;20478;-73
2022/11/08 02:19:49;;;;;;;14.02;4.10;;;12.30;84.30;;;;;;5034093;28;20430;-73
2022/11/08 02:22:19;;;;;;;12.60;3.67;;;12.30;86.10;;;;;;5033352;28;20415;-73
2022/11/08 02:24:45;;;;;;;11.98;4.47;;;12.20;87.50;;;;;;5034690;28;20379;-73
2022/11/08 02:27:12;;;;;;;10.32;3.75;;;12.10;89.00;;;;;;5034325;28;20390;-74
2022/11/08 02:29:37;;;;;;;11.80;4.20;;;12.10;91.80;;;;;;5016690;28;20391;-73
2022/11/08 02:32:04;;;;;;;10.38;3.67;;;12.00;93.40;;;;;;5032519;28;20387;-73
2022/11/08 02:34:37;;;;;;;12.33;4.23;;;12.00;94.00;;;;;;5034017;28;20386;-72
2022/11/08 02:37:05;;;;;;;11.20;3.95;;;12.00;94.80;;;;;;5034320;28;20379;-73
2022/11/08 02:39:31;;;;;;;13.93;4.00;;;12.00;95.00;;;;;;5034499;28;20391;-72
2022/11/08 02:41:57;;;;;;;10.80;3.47;;;12.10;93.40;;;;;;5033583;28;20925;-72
2022/11/08 02:44:23;;;;;;;11.80;3.70;;;12.20;92.60;;;;;;5034494;28;20470;-74
2022/11/08 02:46:48;;;;;;;17.67;4.37;;;12.10;90.80;;;;;;5033553;28;20869;-73
2022/11/08 02:49:14;;;;;;;10.15;4.00;;;12.00;93.40;;;;;;5015761;28;20799;-74
2022/11/08 02:51:39;;;;;;;10.82;3.88;;;12.00;95.00;;;;;;5033032;28;20419;-73
2022/11/08 02:54:05;;;;;;;11.88;4.40;;;11.90;95.30;;;;;;5033251;28;20743;-73
2022/11/08 02:56:31;;;;;;;11.15;4.53;;;11.90;96.00;;;;;;5033623;28;20891;-73
2022/11/08 02:58:56;;;;;;;11.20;4.60;;;11.80;96.60;;;;;;5033563;28;20399;-72
2022/11/08 03:01:22;;;;;;;12.70;4.80;;;11.90;96.20;;;;;;5033233;28;20403;-73
2022/11/08 03:03:48;;;;;;;13.43;4.20;;;11.80;96.80;;;;;;5033066;28;20387;-73
2022/11/08 03:06:13;;;;;;;15.30;4.20;;;11.80;98.10;;;;;;5033313;28;20880;-74
2022/11/08 03:08:39;;;;;;;9.20;3.80;;;11.80;97.70;;;;;;5033399;28;20870;-74
2022/11/08 03:11:04;;;;;;;11.02;4.20;;;11.80;98.10;;;;;;5034328;28;20402;-72
2022/11/08 03:13:30;;;;;;;12.93;4.70;;;11.90;95.30;;;;;;5033809;28;20446;-73
2022/11/08 03:15:55;;;;;;;16.45;4.30;;;11.90;95.40;;;;;;5033758;28;20880;-73
2022/11/08 03:18:21;;;;;;;15.07;4.43;;;12.00;95.00;;;;;;5033906;28;20418;-74
2022/11/08 03:20:47;;;;;;;10.70;4.80;;;12.00;93.00;;;;;;5033110;28;20410;-75
2022/11/08 03:23:12;;;;;;;12.23;4.10;;;12.00;92.90;;;;;;5033161;28;20442;-73
2022/11/08 03:25:38;;;;;;;11.90;3.70;;;11.90;94.30;;;;;;5033559;28;20848;-72
2022/11/08 03:28:05;;;;;;;14.43;5.03;;;11.90;95.30;;;;;;5033135;28;20929;-75
2022/11/08 03:30:30;;;;;;;13.75;5.30;;;11.90;96.90;;;;;;5034099;28;20383;-73
2022/11/08 03:32:56;;;;;;;11.53;5.67;;;11.90;98.80;;;;;;5033815;28;20387;-73
2022/11/08 03:35:22;;;;;;;14.80;5.60;;;11.90;97.30;;;;;;5039345;28;20398;-73
2022/11/08 03:37:55;;;;;;;9.43;5.10;;;11.80;98.30;;;;;;5037796;28;20394;-75
2022/11/08 03:40:21;;;;;;;15.80;6.00;;;11.70;99.20;;;;;;5037659;28;20390;-74
2022/11/08 03:42:47;;;;;;;10.13;5.35;;;11.60;99.90;;;;;;5038180;28;20407;-74
2022/11/08 03:45:13;;;;;;;12.82;5.75;;;11.50;99.90;;;;;;5034888;28;20387;-74
2022/11/08 03:47:41;;;;;;;12.38;4.85;;;11.50;99.90;;;;;;5034155;28;20929;-74
2022/11/08 03:50:08;;;;;;;9.63;4.70;;;11.50;99.90;;;;;;5033044;28;20413;-74
2022/11/08 03:52:47;;;;;;;10.57;4.15;;;11.60;99.90;;;;;;5030256;28;20403;-74
2022/11/08 03:55:13;;;;;;;10.90;4.63;;;11.60;99.80;;;;;;5034830;28;20421;-73
2022/11/08 03:57:40;;;;;;;10.93;4.50;;;11.60;99.90;;;;;;5045692;28;20425;-73
2022/11/08 04:00:08;;;;;;;13.88;4.90;;;11.60;99.90;;;;;;5015867;28;20427;-74
2022/11/08 04:02:33;;;;;;;10.23;3.95;;;11.60;99.90;;;;;;5034118;28;20890;-74
2022/11/08 04:04:59;;;;;;;10.97;3.90;;;11.60;99.90;;;;;;5034272;28;20493;-73
2022/11/08 04:07:24;;;;;;;9.85;4.05;;;11.50;99.90;;;;;;5032882;28;20399;-74
2022/11/08 04:09:50;;;;;;;10.07;4.28;;;11.50;99.90;;;;;;5037012;28;20408;-74
2022/11/08 04:15:14;;;;;;;11.45;4.47;;;11.50;99.90;;;;;;5054018;28;20418;-73
2022/11/08 04:23:10;;;;;;;11.77;6.00;;;11.40;99.90;;;;;;5035141;28;20495;-73
2022/11/08 04:25:36;;;;;;;13.30;6.47;;;11.40;99.90;;;;;;5035480;28;20939;-72
2022/11/08 04:28:02;;;;;;;14.27;6.63;;;11.30;99.90;;;;;;5032807;28;20395;-73
2022/11/08 04:30:27;;;;;;;15.45;6.18;;;11.40;99.90;;;;;;5031831;28;20484;-73
2022/11/08 04:32:53;;;;;;;10.23;5.40;;;11.30;99.90;;;;;;5013696;28;20395;-73
2022/11/08 04:35:18;;;;;;;11.57;5.55;;;11.20;99.90;;;;;;5031578;28;20390;-74
2022/11/08 04:37:44;;;;;;;9.98;5.30;;;11.20;99.90;;;;;;5031717;28;20390;-72
2022/11/08 04:40:10;;;;;;;12.43;5.50;;;11.30;99.90;;;;;;5031318;28;20417;-73
2022/11/08 04:42:36;;;;;;;10.05;5.63;;;11.30;99.90;;;;;;5031266;28;20399;-72
2022/11/08 04:45:01;;;;;;;16.17;6.90;;;11.30;99.90;;;;;;5032461;28;20409;-74
2022/11/08 04:47:27;;;;;;;12.98;5.03;;;11.20;99.90;;;;;;5034273;28;20425;-75
2022/11/08 04:49:53;;;;;;;12.60;5.60;;;11.30;99.90;;;;;;5034424;28;20375;-75
2022/11/08 04:52:19;;;;;;;14.30;6.85;;;11.30;99.90;;;;;;5033350;28;20444;-74
2022/11/08 04:54:46;;;;;;;17.48;5.35;;;11.40;99.90;;;;;;5032530;28;20384;-75
2022/11/08 04:57:11;;;;;;;9.30;4.73;;;11.30;99.90;;;;;;5030917;28;20479;-74
2022/11/08 04:59:38;;;;;;;13.17;5.83;;;11.30;99.90;;;;;;5031629;28;20473;-74
2022/11/08 05:02:04;;;;;;;15.88;5.50;;;11.30;99.90;;;;;;5030989;28;20403;-75
2022/11/08 05:04:29;;;;;;;13.45;5.80;;;11.30;99.90;;;;;;5031750;28;20377;-74
2022/11/08 05:06:55;;;;;;;15.07;5.17;;;11.20;99.90;;;;;;5013586;28;20391;-73
2022/11/08 05:09:21;;;;;;;12.50;4.80;;;11.20;99.90;;;;;;5031517;28;20383;-72
2022/11/08 05:11:47;;;;;;;11.25;5.07;;;11.20;99.90;;;;;;5030917;28;20409;-75
2022/11/08 05:14:12;;;;;;;13.55;5.47;;;11.20;99.90;;;;;;5013167;28;20395;-72
2022/11/08 05:16:38;;;;;;;13.23;5.82;;;11.20;99.90;;;;;;5031107;28;20397;-72
2022/11/08 05:19:04;;;;;;;11.63;5.70;;;11.20;99.90;;;;;;5031164;28;20752;-74
2022/11/08 05:24:16;;;;;;;11.60;6.10;;;11.10;99.90;;;;;;5031325;28;20386;-73
2022/11/08 05:26:44;;;;;;;12.47;5.50;;;11.20;99.90;;;;;;5013575;28;20397;-71
2022/11/08 05:29:10;;;;;;;16.70;5.47;;;11.20;99.90;;;;;;5031071;28;20383;-73
2022/11/08 05:31:36;;;;;;;15.23;6.80;;;11.20;99.90;;;;;;5030980;28;20383;-75
2022/11/08 05:34:02;;;;;;;12.02;5.95;;;11.10;99.90;;;;;;5032972;28;20463;-72
2022/11/08 05:36:28;;;;;;;8.98;5.57;;;11.10;99.90;;;;;;5049450;28;20379;-74
2022/11/08 05:38:54;;;;;;;11.20;5.07;;;11.00;99.90;;;;;;5045924;28;20879;-75
2022/11/08 05:41:22;;;;;;;7.35;4.53;;;11.10;99.90;;;;;;5040840;28;20379;-73
2022/11/08 05:43:50;;;;;;;9.80;4.97;;;11.10;99.90;;;;;;5034320;28;20526;-73
2022/11/08 05:46:17;;;;;;;15.20;5.50;;;10.90;99.90;;;;;;5034963;28;20465;-73
2022/11/08 05:48:43;;;;;;;11.27;5.45;;;10.90;99.90;;;;;;5018681;28;20387;-74
2022/11/08 05:51:10;;;;;;;9.10;5.00;;;10.90;99.90;;;;;;5042159;28;20383;-74
2022/11/08 05:53:36;;;;;;;10.80;4.87;;;10.90;99.90;;;;;;5048907;28;20533;-74
2022/11/08 05:56:03;;;;;;;12.60;5.93;;;10.90;99.90;;;;;;5032832;28;20419;-75
2022/11/08 05:58:31;;;;;;;8.90;5.30;;;11.00;99.90;;;;;;5029001;28;20402;-73
2022/11/08 06:01:00;;;;;;;13.00;6.25;;;11.00;99.90;;;;;;5040758;28;20383;-74
2022/11/08 06:03:26;;;;;;;9.32;4.70;;;11.00;99.90;;;;;;5038353;28;20482;-74
2022/11/08 06:05:51;;;;;;;9.77;5.37;;;11.00;99.90;;;;;;5019689;28;20431;-76
2022/11/08 06:08:17;;;;;;;9.60;5.00;;;11.00;99.90;;;;;;5038854;28;20382;-74
2022/11/08 06:10:42;;;;;;;14.50;5.72;;;11.00;99.90;;;;;;5035572;28;20878;-75
2022/11/08 06:13:08;;;;;;;56.45;8.75;;;11.00;99.90;;;;;;5034334;28;20749;-73
2022/11/08 06:15:34;;;;;;;10.63;5.18;;;11.00;98.80;;;;;;5035278;28;20387;-73
2022/11/08 06:18:03;;;;;;;11.35;5.43;;;11.10;97.70;;;;;;5035924;28;20387;-74
2022/11/08 06:20:29;;;;;;;8.60;4.40;;;11.10;96.20;;;;;;5035197;28;20747;-73
2022/11/08 06:22:54;;;;;;;8.15;4.70;;;11.10;95.80;;;;;;5035558;28;20502;-73
2022/11/08 06:25:21;;;;;;;6.95;4.10;;;11.00;93.40;;;;;;5036122;28;20383;-73
2022/11/08 06:27:47;;;;;;;10.57;4.50;;;11.00;92.70;;;;;;5036935;28;20391;-74
2022/11/08 06:30:13;;;;;;;7.97;4.23;;;11.00;93.90;;;;;;5020788;28;20387;-74
2022/11/08 06:32:38;;;;;;;8.35;3.70;;;11.00;94.10;;;;;;5036726;28;20387;-74
2022/11/08 06:35:04;;;;;;;8.60;3.58;;;11.10;90.40;;;;;;5037816;28;20391;-73
2022/11/08 06:37:30;;;;;;;8.90;4.30;;;11.10;86.70;;;;;;5037814;28;20748;-76
2022/11/08 06:39:57;;;;;;;12.40;4.40;;;11.20;85.80;;;;;;5016772;28;20395;-75
2022/11/08 06:42:23;;;;;;;10.32;4.65;;;11.20;85.90;;;;;;5033849;28;20407;-74
2022/11/08 06:44:49;;;;;;;7.72;3.55;;;11.10;85.70;;;;;;5035092;28;20748;-73
2022/11/08 06:47:14;;;;;;;13.18;4.65;;;11.20;84.70;;;;;;5035845;28;20413;-75
2022/11/08 06:49:40;;;;;;;9.60;3.70;;;11.20;85.10;;;;;;5036704;28;20453;-74
2022/11/08 06:52:05;;;;;;;10.70;3.47;;;11.20;83.40;;;;;;5017395;28;20423;-74
2022/11/08 06:54:31;;;;;;;7.33;3.50;;;11.20;81.20;;;;;;5017325;28;20395;-74
2022/11/08 06:56:59;;;;;;;16.23;4.40;;;11.30;79.50;;;;;;5034722;28;20872;-74
2022/11/08 06:59:26;;;;;;;10.32;4.13;;;11.40;77.90;;;;;;5033102;28;20444;-73
2022/11/08 07:01:52;;;;;;;6.72;4.15;;;11.40;78.50;;;;;;5033142;28;20403;-73
2022/11/08 07:04:17;;;;;;;7.13;4.50;;;11.50;77.00;;;;;;5015767;28;20453;-75
2022/11/08 07:06:43;;;;;;;8.98;3.05;;;11.70;76.00;;;;;;5016054;28;20466;-73
2022/11/08 07:09:08;;;;;;;8.47;3.50;;;11.70;73.70;;;;;;5015816;28;20391;-74
2022/11/08 07:11:34;;;;;;;11.80;4.37;;;11.70;70.80;;;;;;5033035;28;20379;-73
2022/11/08 07:13:59;;;;;;;12.73;4.70;;;11.70;71.50;;;;;;5034056;28;20465;-74
2022/11/08 07:16:25;;;;;;;10.63;4.22;;;11.80;69.70;;;;;;5034616;28;20458;-76
2022/11/08 07:18:50;;;;;;;7.68;3.10;;;11.90;68.20;;;;;;5033468;28;20387;-74
2022/11/08 07:21:16;;;;;;;6.55;3.78;;;12.00;65.10;;;;;;5033761;28;20407;-74
2022/11/08 07:23:42;;;;;;;9.45;4.00;;;12.10;65.80;;;;;;5034638;28;20457;-75
2022/11/08 07:26:09;;;;;;;6.90;3.80;;;12.10;65.50;;;;;;5035894;28;20880;-72
2022/11/08 07:28:35;;;;;;;6.35;3.50;;;12.10;64.20;;;;;;5016315;28;20398;-71
2022/11/08 07:31:02;;;;;;;8.57;3.70;;;12.20;65.20;;;;;;5032915;28;20744;-74
2022/11/08 07:33:29;;;;;;;9.43;3.60;;;12.20;63.20;;;;;;5032956;28;20388;-73
2022/11/08 07:35:54;;;;;;;6.03;3.47;;;12.20;63.70;;;;;;5033219;28;20922;-73
2022/11/08 07:38:20;;;;;;;10.57;3.65;;;12.30;62.90;;;;;;5033016;28;20387;-73
2022/11/08 07:40:46;;;;;;;7.88;3.03;;;12.30;63.00;;;;;;5032794;28;20387;-73
2022/11/08 07:43:12;;;;;;;9.67;3.40;;;12.30;60.10;;;;;;5032752;28;20486;-73
2022/11/08 07:45:38;;;;;;;9.40;3.80;;;12.40;60.30;;;;;;5033307;28;20971;-75
2022/11/08 07:48:06;;;;;;;13.07;3.80;;;12.50;59.00;;;;;;5032541;28;20386;-74
2022/11/08 07:50:32;;;;;;;9.38;3.55;;;12.50;59.10;;;;;;5032324;28;20748;-73
2022/11/08 07:52:57;;;;;;;10.55;3.70;;;12.70;58.80;;;;;;5032873;28;20387;-75
2022/11/08 07:55:24;;;;;;;7.30;3.30;;;12.70;56.60;;;;;;5036007;28;20394;-75
2022/11/08 07:57:50;;;;;;;6.03;2.85;;;12.90;54.50;;;;;;5035155;28;20749;-74
2022/11/08 08:00:16;;;;;;;7.05;3.20;;;12.90;52.50;;;;;;5017364;28;20938;-76
2022/11/08 08:02:42;;;;;;;6.27;2.83;;;13.10;52.30;;;;;;5035055;28;20509;-74
2022/11/08 08:05:08;;;;;;;7.90;3.00;;;13.10;51.50;;;;;;5017693;28;20387;-74
2022/11/08 08:07:34;;;;;;;8.10;3.15;;;13.20;50.40;;;;;;5034569;28;20419;-73
2022/11/08 08:10:00;;;;;;;7.63;3.40;;;13.30;50.90;;;;;;5032890;28;20956;-74
2022/11/08 08:12:25;;;;;;;6.17;3.27;;;13.40;51.10;;;;;;5036085;28;20422;-75
2022/11/08 08:14:51;;;;;;;6.70;3.10;;;13.50;47.80;;;;;;5040039;28;20391;-75
2022/11/08 08:17:16;;;;;;;5.83;2.87;;;13.50;47.50;;;;;;5040263;28;20387;-74
2022/11/08 08:19:42;;;;;;;6.20;2.53;;;13.60;46.30;;;;;;5040145;28;20387;-73
2022/11/08 08:22:07;;;;;;;3.80;3.03;;;13.60;46.90;;;;;;5020424;28;20494;-75
2022/11/08 08:24:33;;;;;;;7.27;2.80;;;13.80;45.30;;;;;;5022092;28;20391;-75
2022/11/08 08:26:59;;;;;;;5.73;2.70;;;14.00;44.20;;;;;;5022937;28;20396;-75
2022/11/08 08:29:24;;;;;;;5.60;2.90;;;14.00;42.70;;;;;;5042419;28;20731;-75
2022/11/08 08:31:50;;;;;;;6.88;3.13;;;13.90;43.40;;;;;;5017813;28;20809;-73
2022/11/08 08:34:16;;;;;;;6.10;2.78;;;13.90;43.30;;;;;;5015174;28;20395;-73
2022/11/08 08:36:42;;;;;;;6.82;2.92;;;13.80;43.10;;;;;;5015047;28;20395;-73
2022/11/08 08:39:08;;;;;;;7.40;2.92;;;13.80;43.50;;;;;;5032925;28;20384;-74
2022/11/08 08:41:34;;;;;;;7.43;2.90;;;13.80;43.80;;;;;;5032171;28;20414;-73
2022/11/08 08:43:59;;;;;;;7.00;3.35;;;13.80;42.50;;;;;;5031840;28;20391;-73
2022/11/08 08:46:26;;;;;;;8.30;3.40;;;13.80;43.60;;;;;;5031756;28;20391;-74
2022/11/08 08:48:52;;;;;;;11.15;3.30;;;13.80;43.80;;;;;;5031607;28;20387;-75
2022/11/08 08:51:18;;;;;;;5.57;2.83;;;13.90;43.10;;;;;;5031638;28;20848;-74
2022/11/08 08:53:44;;;;;;;10.48;2.97;;;13.90;42.20;;;;;;5032369;28;20395;-73
2022/11/08 08:56:10;;;;;;;8.85;3.35;;;14.10;40.70;;;;;;5013884;28;20391;-75
2022/11/08 08:58:35;;;;;;;11.20;3.77;;;14.10;40.40;;;;;;5014300;28;20383;-73
2022/11/08 09:01:07;;;;;;;6.70;2.90;;;14.20;41.10;;;;;;5031532;28;20979;-74
2022/11/08 09:03:34;;;;;;;5.70;3.15;;;14.30;39.70;;;;;;5014301;28;20410;-74
2022/11/08 09:06:00;;;;;;;7.72;3.17;;;14.40;38.40;;;;;;5031937;28;20923;-74
2022/11/08 09:08:27;;;;;;;7.07;2.80;;;14.50;37.60;;;;;;5032192;28;20473;-72
2022/11/08 09:10:57;;;;;;;6.57;2.90;;;14.50;36.30;;;;;;5031895;28;20384;-73
2022/11/08 09:13:29;;;;;;;5.80;3.00;;;14.60;35.90;;;;;;5033159;28;20457;-73
2022/11/08 09:15:55;;;;;;;8.75;3.17;;;14.60;36.40;;;;;;5032152;28;20438;-73
2022/11/08 09:18:21;;;;;;;8.20;3.30;;;14.60;36.20;;;;;;5031431;28;20787;-74
2022/11/08 09:20:47;;;;;;;7.40;3.10;;;14.60;37.20;;;;;;5035075;28;20391;-73
2022/11/08 09:23:15;;;;;;;6.55;3.00;;;14.60;36.60;;;;;;5026327;28;20403;-74
2022/11/08 09:25:41;;;;;;;13.00;3.05;;;14.60;36.80;;;;;;5038617;28;20375;-73
2022/11/08 09:28:06;;;;;;;5.05;3.20;;;14.70;36.40;;;;;;5033788;28;20394;-75
2022/11/08 09:30:32;;;;;;;7.47;2.90;;;14.70;37.50;;;;;;5036032;28;20386;-75
2022/11/08 09:32:57;;;;;;;6.80;3.20;;;14.70;36.60;;;;;;5034645;28;20794;-74
2022/11/08 09:35:23;;;;;;;7.20;2.50;;;14.70;36.80;;;;;;5032062;28;20395;-74
2022/11/08 09:37:51;;;;;;;8.00;3.63;;;14.70;36.60;;;;;;5031860;28;20386;-73
2022/11/08 09:40:22;;;;;;;5.57;2.90;;;14.60;37.80;;;;;;5013674;28;20490;-74
2022/11/08 09:43:26;;;;;;;5.65;2.83;;;14.70;37.00;;;;;;5034073;28;20449;-74
2022/11/08 09:45:54;;;;;;;7.03;3.20;;;14.70;37.90;;;;;;4993817;28;20839;-73
2022/11/08 09:48:35;;;;;;;8.75;3.17;;;14.70;37.60;;;;;;4993311;28;20389;-74
2022/11/08 09:51:28;;;;;;;9.10;3.00;;;14.70;37.80;;;;;;5017563;28;20387;-75
2022/11/08 09:53:57;;;;;;;5.85;2.90;;;14.80;35.50;;;;;;5033493;28;20387;-73
2022/11/08 09:56:30;;;;;;;9.13;3.00;;;14.90;36.10;;;;;;5035447;28;20383;-74
2022/11/08 09:59:25;;;;;;;7.15;2.97;;;14.90;35.80;;;;;;5019269;28;20387;-73
2022/11/08 10:01:51;;;;;;;6.80;3.00;;;14.90;36.20;;;;;;5036948;28;20441;-75
2022/11/08 10:04:21;;;;;;;7.13;2.90;;;14.90;35.90;;;;;;5031001;28;20425;-74
2022/11/08 10:07:14;;;;;;;8.15;2.83;;;14.90;35.30;;;;;;5053267;28;20425;-75
2022/11/08 10:10:25;;;;;;;8.85;3.10;;;14.90;35.30;;;;;;5051666;28;20434;-73
2022/11/08 10:12:56;;;;;;;7.78;2.78;;;14.90;35.00;;;;;;5035827;28;20607;-74
2022/11/08 10:15:33;;;;;;;6.15;2.70;;;15.00;35.00;;;;;;5017982;28;20417;-74
2022/11/08 10:18:34;;;;;;;5.78;3.25;;;15.00;34.80;;;;;;5034732;28;20414;-74
2022/11/08 10:21:26;;;;;;;7.35;3.50;;;15.10;35.00;;;;;;5034699;28;20757;-74
2022/11/08 10:24:21;;;;;;;7.53;3.47;;;15.10;34.20;;;;;;5034710;28;20542;-75
2022/11/08 10:26:48;;;;;;;7.53;3.05;;;15.20;34.40;;;;;;5034695;28;20375;-74
2022/11/08 10:29:36;;;;;;;5.53;3.20;;;15.30;33.20;;;;;;5035149;28;20387;-74
2022/11/08 10:32:20;;;;;;;8.48;3.30;;;15.30;33.70;;;;;;5035148;28;20387;-74
2022/11/08 10:34:54;;;;;;;5.10;3.00;;;15.40;33.40;;;;;;5038174;28;20469;-75
2022/11/08 10:37:22;;;;;;;5.85;3.00;;;15.40;33.40;;;;;;5039964;28;20407;-76
2022/11/08 10:40:02;;;;;;;8.32;3.40;;;15.40;33.80;;;;;;5039351;28;20398;-75
2022/11/08 10:42:40;;;;;;;9.35;2.70;;;15.40;33.90;;;;;;5038971;28;20407;-75
2022/11/08 10:45:08;;;;;;;13.40;3.30;;;15.50;33.10;;;;;;5037717;28;20473;-75
2022/11/08 10:47:34;;;;;;;5.35;3.20;;;15.60;33.20;;;;;;5035500;28;20395;-74
2022/11/08 10:49:59;;;;;;;10.10;3.25;;;15.70;33.20;;;;;;5033764;28;20379;-73
2022/11/08 10:52:39;;;;;;;6.15;3.20;;;15.70;32.90;;;;;;5016006;28;20418;-74
2022/11/08 10:55:07;;;;;;;5.43;2.90;;;15.70;32.90;;;;;;5033743;28;20426;-74
2022/11/08 10:57:43;;;;;;;5.03;3.40;;;15.70;32.10;;;;;;5033959;28;20456;-72
2022/11/08 11:00:21;;;;;;;6.73;3.03;;;15.70;32.90;;;;;;5035940;28;20458;-72
2022/11/08 11:02:50;;;;;;;5.97;3.10;;;15.80;31.80;;;;;;5018620;28;20442;-75
2022/11/08 11:05:20;;;;;;;6.53;3.60;;;15.90;32.00;;;;;;5034250;28;20384;-75
2022/11/08 11:07:52;;;;;;;7.80;3.45;;;15.90;31.90;;;;;;5033562;28;20410;-73
2022/11/08 11:10:37;;;;;;;6.03;3.80;;;16.00;32.20;;;;;;5033813;28;20398;-75
2022/11/08 11:13:12;;;;;;;6.25;3.15;;;16.10;31.80;;;;;;5033158;28;20929;-77
2022/11/08 11:15:39;;;;;;;5.63;3.50;;;16.10;30.60;;;;;;5016143;28;20477;-74
2022/11/08 11:18:17;;;;;;;5.35;2.97;;;16.20;31.20;;;;;;5033317;28;20406;-74
2022/11/08 11:20:55;;;;;;;6.07;3.10;;;16.30;30.30;;;;;;5033098;28;20391;-73
2022/11/08 11:23:20;;;;;;;5.45;3.10;;;16.30;29.90;;;;;;5033203;28;20411;-73
2022/11/08 11:25:50;;;;;;;6.83;3.20;;;16.40;29.40;;;;;;5032969;28;20440;-73
2022/11/08 11:28:16;;;;;;;6.50;2.90;;;16.40;29.70;;;;;;5015163;28;20406;-72
2022/11/08 11:30:46;;;;;;;6.75;2.60;;;16.50;28.70;;;;;;5033170;28;20383;-75
2022/11/08 11:33:23;;;;;;;7.45;2.97;;;16.60;28.70;;;;;;5014869;28;20397;-73
2022/11/08 11:35:54;;;;;;;6.72;3.00;;;16.60;27.60;;;;;;5033124;28;20411;-75
2022/11/08 11:38:37;;;;;;;5.28;2.90;;;16.60;27.80;;;;;;5033182;28;20438;-73
2022/11/08 11:41:10;;;;;;;8.40;2.80;;;16.60;28.40;;;;;;5032801;28;20391;-73
2022/11/08 11:44:04;;;;;;;7.55;2.95;;;16.70;27.80;;;;;;5032444;28;20453;-72
2022/11/08 11:46:54;;;;;;;4.40;2.67;;;16.90;27.50;;;;;;5032353;28;20398;-72
2022/11/08 11:49:21;;;;;;;7.25;2.90;;;17.10;27.10;;;;;;5032281;28;20462;-71
2022/11/08 11:51:46;;;;;;;6.78;3.17;;;17.10;26.70;;;;;;5032002;28;20383;-72
2022/11/08 11:54:15;;;;;;;9.07;3.27;;;17.20;27.10;;;;;;5032020;28;20383;-73
2022/11/08 11:56:52;;;;;;;6.90;3.53;;;17.30;26.40;;;;;;5014571;28;20396;-72
2022/11/08 11:59:51;;;;;;;9.95;2.65;;;17.40;25.90;;;;;;5032317;28;20437;-76
2022/11/08 12:02:47;;;;;;;6.95;3.20;;;17.40;26.50;;;;;;5031515;28;20725;-73
2022/11/08 12:05:37;;;;;;;11.00;2.97;;;17.60;26.20;;;;;;5032372;28;20401;-73
2022/11/08 12:08:32;;;;;;;7.05;2.90;;;17.70;25.80;;;;;;5032419;28;20829;-74
2022/11/08 12:10:57;;;;;;;5.30;3.00;;;17.70;26.10;;;;;;5032307;28;20846;-72
2022/11/08 12:13:46;;;;;;;7.50;2.80;;;17.60;25.60;;;;;;5032924;28;20466;-75
2022/11/08 12:16:32;;;;;;;7.40;2.83;;;17.60;25.70;;;;;;5035520;28;20406;-75
2022/11/08 12:19:17;;;;;;;6.75;2.85;;;17.60;25.20;;;;;;5036204;28;20389;-74
2022/11/08 12:22:23;;;;;;;8.98;3.13;;;17.60;25.20;;;;;;5040420;22;20444;-73
2022/11/08 12:25:08;;;;;;;9.10;2.60;;;17.50;25.50;;;;;;5015216;28;20389;-74
2022/11/08 12:27:56;;;;;;;6.25;3.00;;;17.40;25.80;;;;;;5012339;28;20773;-72
2022/11/08 12:30:48;;;;;;;6.43;2.95;;;17.30;26.00;;;;;;5012532;28;20435;-72
2022/11/08 12:33:46;;;;;;;5.55;2.70;;;17.20;27.00;;;;;;4992569;28;20382;-69
2022/11/08 12:36:26;;;;;;;7.23;2.80;;;17.30;27.10;;;;;;4989443;28;20485;-70
2022/11/08 12:39:01;;;;;;;10.25;3.10;;;17.30;26.80;;;;;;4992969;28;20444;-70
2022/11/08 12:41:29;;;;;;;7.75;2.90;;;17.30;26.50;;;;;;4974697;28;20756;-70
2022/11/08 12:44:36;;;;;;;4.57;2.50;;;17.30;26.30;;;;;;4992160;28;20406;-71
2022/11/08 12:47:19;;;;;;;10.57;3.17;;;17.30;26.60;;;;;;4992726;28;20883;-73
2022/11/08 12:50:02;;;;;;;7.47;3.10;;;17.40;27.30;;;;;;4993142;28;20383;-73
2022/11/08 12:52:40;;;;;;;4.85;2.60;;;17.50;27.30;;;;;;4992712;28;20863;-72
2022/11/08 12:55:15;;;;;;;7.60;3.20;;;17.50;27.00;;;;;;4974879;28;20394;-73
2022/11/08 12:57:42;;;;;;;11.73;3.08;;;17.50;27.50;;;;;;4992572;28;20391;-72
2022/11/08 13:00:16;;;;;;;9.20;3.10;;;17.60;27.20;;;;;;4991541;28;20871;-73
2022/11/08 13:02:46;;;;;;;5.88;2.90;;;17.60;27.30;;;;;;4992347;28;20433;-73
2022/11/08 13:05:22;;;;;;;8.25;3.20;;;17.60;27.30;;;;;;4991787;28;20478;-72
2022/11/08 13:07:51;;;;;;;6.93;2.88;;;17.50;27.30;;;;;;4991702;28;20381;-72
2022/11/08 13:11:05;;;;;;;12.52;3.10;;;17.60;27.20;;;;;;4993707;28;20382;-70
2022/11/08 13:13:51;;;;;;;7.78;3.15;;;17.40;27.30;;;;;;4989019;28;20402;-72
2022/11/08 13:16:33;;;;;;;7.18;2.95;;;17.40;28.00;;;;;;4974463;28;20406;-70